Time;durP1;ratioP1;P1;durP2;ratioP2;P2;SDS_P1;SDS_P2;PMS_P1;PMS_P2;Temp;Humidity;BMP_temperature;BMP_pressure;BME280_temperature;BME280_humidity;BME280_pressure;Samples;Min_cycle;Max_cycle;Signal;HPM_P1;HPM_P2
2021/11/08 00:01:04;;;;;;;7.82;3.35;;;;;;;25.64;20.37;97983.63;5063897;28;20564;-82
2021/11/08 00:03:33;;;;;;;4.90;3.13;;;;;;;25.88;20.40;97981.31;5066970;28;20028;-82
2021/11/08 00:06:04;;;;;;;6.53;4.15;;;;;;;25.94;20.10;97991.53;5068501;28;20036;-82
2021/11/08 00:08:31;;;;;;;6.07;3.35;;;;;;;26.07;19.84;97980.28;5054653;28;20413;-82
2021/11/08 00:10:58;;;;;;;2.85;2.15;;;;;;;25.87;20.02;97979.72;5071842;28;21019;-82
2021/11/08 00:13:25;;;;;;;5.40;3.30;;;;;;;26.15;19.93;97978.88;5057073;28;20029;-82
2021/11/08 00:16:09;;;;;;;6.20;2.63;;;;;;;26.18;19.89;97983.59;5072447;28;20024;-82
2021/11/08 00:21:22;;;;;;;8.05;4.57;;;;;;;26.05;19.92;97980.75;5043058;28;20052;-83
2021/11/08 00:23:50;;;;;;;4.05;2.70;;;;;;;25.85;19.82;97983.00;5062657;28;20029;-83
2021/11/08 00:26:17;;;;;;;3.22;2.22;;;;;;;25.71;20.29;97977.00;5065932;28;20516;-83
2021/11/08 00:28:43;;;;;;;3.58;2.53;;;;;;;25.16;20.84;97981.75;5065607;28;20090;-83
2021/11/08 00:31:09;;;;;;;2.90;2.20;;;;;;;25.26;20.76;98002.38;5067469;28;20678;-83
2021/11/08 00:33:35;;;;;;;2.65;1.75;;;;;;;24.60;21.15;97998.06;5071582;28;20020;-83
2021/11/08 00:36:02;;;;;;;2.00;1.70;;;;;;;24.44;21.72;98008.50;5069649;28;20044;-83
2021/11/08 00:38:29;;;;;;;2.75;2.10;;;;;;;24.29;21.87;98004.50;5064616;28;20375;-83
2021/11/08 00:40:56;;;;;;;2.58;1.55;;;;;;;24.44;21.60;98006.50;5069759;28;20059;-83
2021/11/08 00:43:25;;;;;;;5.25;2.67;;;;;;;24.36;21.65;98007.13;5062034;28;20044;-83
2021/11/08 00:45:52;;;;;;;5.20;3.33;;;;;;;23.51;22.67;97991.38;5069733;28;20024;-83
2021/11/08 00:48:21;;;;;;;3.05;1.90;;;;;;;23.94;22.25;98003.28;5064593;28;20462;-84
2021/11/08 00:50:49;;;;;;;2.78;2.10;;;;;;;23.87;22.30;98006.22;5071295;28;20028;-84
2021/11/08 00:53:16;;;;;;;2.90;1.88;;;;;;;23.67;22.51;98013.88;5067626;28;20045;-83
2021/11/08 00:55:43;;;;;;;3.92;2.40;;;;;;;23.55;22.64;98018.13;5065276;28;20457;-83
2021/11/08 00:58:16;;;;;;;4.07;2.72;;;;;;;22.97;23.33;98016.03;5067018;28;20036;-83
2021/11/08 01:00:43;;;;;;;2.80;1.75;;;;;;;23.07;23.42;98031.84;5069651;28;20692;-82
2021/11/08 01:03:11;;;;;;;3.25;1.83;;;;;;;23.35;23.11;98026.53;5054073;28;20040;-83
2021/11/08 01:05:37;;;;;;;1.65;1.42;;;;;;;23.51;22.90;98020.22;5059643;28;20025;-83
2021/11/08 01:08:04;;;;;;;3.35;2.05;;;;;;;23.28;23.20;98032.25;5068287;28;20044;-83
2021/11/08 01:10:30;;;;;;;3.97;2.50;;;;;;;23.64;22.69;98026.72;5066774;28;20032;-83
2021/11/08 01:12:56;;;;;;;2.15;1.38;;;;;;;23.03;23.18;98033.94;5081631;28;20524;-83
2021/11/08 01:15:22;;;;;;;2.67;1.80;;;;;;;22.69;24.10;98042.53;5054471;28;20118;-84
2021/11/08 01:17:51;;;;;;;2.42;1.80;;;;;;;22.94;23.57;98044.91;5088703;28;20509;-85
2021/11/08 01:20:17;;;;;;;2.85;1.70;;;;;;;22.81;23.75;98041.91;5069433;28;20029;-84
2021/11/08 01:22:43;;;;;;;2.30;2.03;;;;;;;23.46;23.18;98045.94;5069244;28;20029;-84
2021/11/08 01:25:10;;;;;;;2.40;1.58;;;;;;;23.73;22.66;98043.78;5073006;28;20028;-85
2021/11/08 01:27:43;;;;;;;1.83;1.60;;;;;;;23.95;22.39;98047.69;5060265;28;20063;-85
2021/11/08 01:30:21;;;;;;;2.38;2.03;;;;;;;23.71;22.43;98039.84;5064950;28;20040;-85
2021/11/08 01:33:00;;;;;;;3.47;1.73;;;;;;;23.72;22.55;98058.22;5065230;28;20045;-84
2021/11/08 01:35:35;;;;;;;4.15;2.30;;;;;;;24.11;21.98;98046.19;5062787;28;20129;-85
2021/11/08 01:38:20;;;;;;;2.45;1.63;;;;;;;24.26;21.83;98053.06;5060766;28;20032;-82
2021/11/08 01:40:47;;;;;;;1.63;1.27;;;;;;;23.85;22.17;98059.16;5060691;28;20063;-84
2021/11/08 01:43:13;;;;;;;3.05;1.60;;;;;;;23.74;22.17;98058.56;5062459;28;20497;-83
2021/11/08 01:45:40;;;;;;;2.25;1.48;;;;;;;23.94;22.06;98060.13;5067028;28;20028;-81
2021/11/08 01:48:08;;;;;;;2.55;1.70;;;;;;;24.20;21.93;98066.03;5069184;28;20117;-82
2021/11/08 01:50:35;;;;;;;1.65;1.20;;;;;;;24.24;21.89;98064.72;5070269;28;20032;-82
2021/11/08 01:53:02;;;;;;;1.80;1.50;;;;;;;24.18;22.02;98071.28;5070370;28;20568;-81
2021/11/08 01:55:28;;;;;;;1.95;1.55;;;;;;;24.65;21.32;98064.13;5073490;28;20127;-82
2021/11/08 01:57:56;;;;;;;2.45;1.60;;;;;;;25.13;20.42;98075.38;5073283;28;20515;-82
2021/11/08 02:00:23;;;;;;;2.05;1.70;;;;;;;25.38;20.13;98071.91;5073064;28;20032;-81
2021/11/08 02:02:49;;;;;;;2.53;1.73;;;;;;;25.70;20.00;98082.28;5071971;28;20070;-82
2021/11/08 02:05:16;;;;;;;2.00;1.38;;;;;;;25.86;19.51;98076.59;5068081;28;20047;-81
2021/11/08 02:07:44;;;;;;;1.77;1.00;;;;;;;25.59;20.12;98078.97;5073256;28;20040;-82
2021/11/08 02:10:12;;;;;;;1.20;1.00;;;;;;;25.64;19.67;98082.06;5058570;28;20031;-81
2021/11/08 02:12:39;;;;;;;0.85;0.80;;;;;;;25.82;19.63;98089.97;5076907;28;20544;-81
2021/11/08 02:15:10;;;;;;;1.30;1.20;;;;;;;25.79;19.85;98090.88;5073402;28;20036;-81
2021/11/08 02:17:37;;;;;;;3.47;1.10;;;;;;;26.02;19.43;98090.59;5069385;28;20032;-81
2021/11/08 02:20:14;;;;;;;1.33;0.93;;;;;;;26.30;19.10;98083.34;5069001;28;20025;-81
2021/11/08 02:22:42;;;;;;;1.10;1.00;;;;;;;26.34;19.06;98078.41;5053060;28;20398;-81
2021/11/08 02:25:09;;;;;;;1.77;0.90;;;;;;;26.19;18.98;98083.66;5068331;28;20037;-81
2021/11/08 02:27:42;;;;;;;2.38;0.93;;;;;;;25.87;19.43;98098.66;5054333;28;20021;-81
2021/11/08 02:30:10;;;;;;;0.70;0.68;;;;;;;25.99;19.53;98085.84;5060194;28;20055;-82
2021/11/08 02:32:37;;;;;;;0.57;0.57;;;;;;;26.04;19.31;98094.53;5063373;28;20028;-82
2021/11/08 02:35:07;;;;;;;0.98;0.88;;;;;;;26.12;19.28;98089.50;5067458;28;20033;-82
2021/11/08 02:37:33;;;;;;;1.67;1.00;;;;;;;26.07;19.44;98090.03;5064497;28;20020;-82
2021/11/08 02:40:02;;;;;;;1.15;0.80;;;;;;;26.01;19.40;98087.00;5061154;28;20051;-82
2021/11/08 02:42:28;;;;;;;1.60;0.90;;;;;;;25.82;19.60;98089.97;5034771;28;20037;-82
2021/11/08 02:44:55;;;;;;;1.73;0.77;;;;;;;25.91;19.46;98090.09;5067549;28;20085;-82
2021/11/08 02:47:22;;;;;;;1.63;0.80;;;;;;;25.97;19.41;98096.78;5082471;28;20040;-82
2021/11/08 02:52:33;;;;;;;1.13;0.63;;;;;;;25.83;19.76;98092.34;5068188;28;20085;-82
2021/11/08 02:55:01;;;;;;;1.17;0.82;;;;;;;25.98;19.61;98101.94;5067575;28;20029;-82
2021/11/08 02:57:28;;;;;;;0.63;0.63;;;;;;;26.19;19.13;98106.19;5067824;28;20036;-82
2021/11/08 02:59:57;;;;;;;1.33;0.75;;;;;;;25.79;19.61;98102.13;5063312;28;20028;-83
2021/11/08 03:02:23;;;;;;;1.80;1.10;;;;;;;25.88;19.52;98105.84;5071959;28;20375;-82
2021/11/08 03:04:53;;;;;;;1.40;1.00;;;;;;;25.90;19.61;98108.22;5071275;28;20034;-83
2021/11/08 03:07:22;;;;;;;1.20;1.00;;;;;;;25.73;19.93;98121.56;5069270;28;20043;-82
2021/11/08 03:09:54;;;;;;;2.00;1.52;;;;;;;25.57;20.01;98121.63;5068275;28;20159;-83
2021/11/08 03:12:25;;;;;;;2.20;1.38;;;;;;;25.27;20.31;98119.97;5060359;28;20040;-83
2021/11/08 03:15:08;;;;;;;1.60;1.08;;;;;;;25.26;20.49;98123.22;5069014;28;20029;-83
2021/11/08 03:17:42;;;;;;;1.17;1.00;;;;;;;25.52;20.24;98126.97;5068960;28;20477;-83
2021/11/08 03:20:11;;;;;;;1.02;0.98;;;;;;;25.72;19.88;98124.84;5068918;28;20107;-83
2021/11/08 03:22:39;;;;;;;1.23;1.08;;;;;;;25.92;19.56;98128.28;5057790;28;20059;-84
2021/11/08 03:25:16;;;;;;;1.35;1.10;;;;;;;26.16;19.59;98126.78;5059110;28;20623;-83
2021/11/08 03:27:55;;;;;;;1.63;1.00;;;;;;;26.30;19.20;98129.16;5060617;28;20091;-83
2021/11/08 03:30:26;;;;;;;1.27;0.90;;;;;;;25.90;20.09;98137.16;5058796;28;20469;-84
2021/11/08 03:32:55;;;;;;;1.77;0.85;;;;;;;25.95;19.80;98139.41;5060560;28;20045;-85
2021/11/08 03:35:24;;;;;;;1.65;0.88;;;;;;;26.23;19.41;98131.41;5064115;28;22271;-82
2021/11/08 03:37:53;;;;;;;1.25;0.93;;;;;;;26.55;19.21;98131.22;5065062;28;20042;-84
2021/11/08 03:40:33;;;;;;;2.30;1.10;;;;;;;26.61;19.01;98121.75;5064678;28;20041;-84
2021/11/08 03:43:01;;;;;;;0.90;0.70;;;;;;;26.59;18.94;98131.91;5064577;28;20037;-84
2021/11/08 03:45:29;;;;;;;1.75;1.10;;;;;;;26.68;18.79;98130.00;5062961;28;20427;-84
2021/11/08 03:47:57;;;;;;;2.20;1.10;;;;;;;26.74;18.91;98131.03;5062230;28;20054;-85
2021/11/08 03:50:24;;;;;;;3.53;1.65;;;;;;;26.87;18.41;98133.06;5060281;28;20036;-85
2021/11/08 03:52:50;;;;;;;1.88;1.30;;;;;;;26.93;18.39;98137.69;5063484;28;20467;-85
2021/11/08 03:55:17;;;;;;;2.10;1.45;;;;;;;26.90;18.83;98137.78;5066199;28;20039;-86
2021/11/08 03:57:44;;;;;;;1.42;1.10;;;;;;;26.55;18.98;98132.03;5071821;28;20043;-85
2021/11/08 04:00:13;;;;;;;0.90;0.77;;;;;;;26.50;19.15;98134.59;5069835;28;20052;-85
2021/11/08 04:02:40;;;;;;;1.52;1.30;;;;;;;26.57;19.13;98134.38;5068029;28;20035;-84
2021/11/08 04:05:08;;;;;;;1.80;1.05;;;;;;;26.69;18.91;98136.41;5053611;28;20044;-85
2021/11/08 04:07:35;;;;;;;0.95;0.70;;;;;;;26.68;18.85;98144.06;5065435;28;20086;-82
2021/11/08 04:10:02;;;;;;;1.00;0.90;;;;;;;26.73;18.84;98137.88;5072269;28;20033;-84
2021/11/08 04:12:28;;;;;;;1.98;1.00;;;;;;;26.69;18.94;98130.78;5067614;28;20035;-84
2021/11/08 04:14:55;;;;;;;0.75;0.55;;;;;;;26.61;19.11;98133.03;5071255;28;20033;-84
2021/11/08 04:17:25;;;;;;;1.42;1.10;;;;;;;26.59;19.01;98135.50;5056775;28;20033;-84
2021/11/08 04:19:52;;;;;;;2.38;1.38;;;;;;;26.61;19.01;98130.22;5059042;28;20028;-83
2021/11/08 04:22:19;;;;;;;1.10;1.00;;;;;;;26.52;19.27;98132.91;5065476;28;20410;-83
2021/11/08 04:24:47;;;;;;;2.03;1.25;;;;;;;25.92;19.80;98134.69;5066018;28;20159;-84
2021/11/08 04:27:14;;;;;;;1.48;1.23;;;;;;;25.30;20.68;98137.97;5081029;28;22705;-84
2021/11/08 04:29:41;;;;;;;1.48;1.13;;;;;;;25.27;20.84;98134.03;5063832;28;20024;-84
2021/11/08 04:32:08;;;;;;;1.67;1.20;;;;;;;25.34;20.73;98135.88;5068531;28;20025;-84
2021/11/08 04:38:15;;;;;;;1.83;1.10;;;;;;;25.79;20.09;98138.69;5067422;28;20415;-84
2021/11/08 04:40:13;;;;;;;1.45;1.15;;;;;;;25.49;20.62;98133.47;5064653;28;20036;-83
2021/11/08 04:45:45;;;;;;;0.95;0.85;;;;;;;25.54;20.49;98133.75;5025924;28;20041;-85
2021/11/08 04:50:58;;;;;;;1.83;1.38;;;;;;;25.54;20.22;98130.94;5069871;28;20045;-83
2021/11/08 04:53:38;;;;;;;1.52;1.05;;;;;;;25.53;20.46;98128.56;5070052;28;20060;-82
2021/11/08 05:21:02;;;;;;;1.08;0.80;;;;;;;25.53;20.15;98125.75;5064534;28;20036;-83
2021/11/08 05:21:14;;;;;;;1.73;0.98;;;;;;;23.70;21.88;98156.78;5064238;28;20055;-84
2021/11/08 05:30:00;;;;;;;1.10;1.00;;;;;;;24.37;20.81;98169.44;5072320;28;20577;-84
2021/11/08 05:31:57;;;;;;;1.83;0.88;;;;;;;24.40;20.82;98170.59;5061929;28;20079;-83
2021/11/08 05:34:25;;;;;;;1.13;0.75;;;;;;;24.49;20.70;98177.19;5072936;28;20036;-84
2021/11/08 05:36:51;;;;;;;1.38;0.80;;;;;;;24.39;20.72;98180.22;5053611;28;20032;-84
2021/11/08 05:39:17;;;;;;;1.27;0.90;;;;;;;24.48;20.60;98183.25;5069666;28;20033;-84
2021/11/08 05:41:45;;;;;;;1.55;0.93;;;;;;;24.58;20.47;98196.25;5055563;28;20418;-84
2021/11/08 05:44:11;;;;;;;0.80;0.80;;;;;;;24.70;20.19;98196.38;5071055;28;20028;-84
2021/11/08 05:46:37;;;;;;;1.40;0.80;;;;;;;24.94;20.15;98194.25;5072995;28;20413;-84
2021/11/08 05:49:04;;;;;;;3.30;1.10;;;;;;;25.13;19.87;98204.66;5070960;28;20044;-84
2021/11/08 05:51:30;;;;;;;2.30;1.30;;;;;;;25.23;19.59;98203.56;5077940;28;20039;-84
2021/11/08 05:53:56;;;;;;;1.55;1.10;;;;;;;25.36;19.51;98203.66;5088641;28;20032;-83
2021/11/08 05:56:54;;;;;;;4.40;1.58;;;;;;;25.25;19.47;98208.78;5072968;28;20032;-85
2021/11/08 06:49:12;;;;;;;1.75;1.10;;;;;;;25.09;20.09;98254.50;5070455;28;20513;-85
2021/11/08 06:51:38;;;;;;;1.25;1.00;;;;;;;25.13;20.37;98252.41;5068938;28;20029;-86
2021/11/08 06:54:04;;;;;;;1.55;1.15;;;;;;;25.30;19.92;98254.00;5074375;28;20025;-86
2021/11/08 06:56:48;;;;;;;1.33;1.23;;;;;;;25.51;19.78;98263.19;5070162;28;20032;-86
2021/11/08 06:59:15;;;;;;;2.80;1.35;;;;;;;25.33;20.08;98263.56;5066484;28;20530;-89
2021/11/08 07:01:44;;;;;;;2.97;1.40;;;;;;;25.60;19.79;98263.34;5078861;28;20386;-86
2021/11/08 07:04:10;;;;;;;2.53;1.90;;;;;;;25.50;19.97;98264.41;5061120;28;20061;-87
2021/11/08 07:06:36;;;;;;;3.53;2.03;;;;;;;25.47;19.98;98271.69;5066438;28;20123;-87
2021/11/08 07:09:03;;;;;;;3.13;2.08;;;;;;;25.75;19.56;98278.63;5063728;28;20040;-89
2021/11/08 07:11:31;;;;;;;2.35;1.60;;;;;;;25.15;20.20;98275.25;5070069;28;20405;-87
2021/11/08 07:13:57;;;;;;;2.90;1.50;;;;;;;24.65;20.90;98286.75;5065798;28;20043;-87
2021/11/08 07:16:23;;;;;;;3.80;2.30;;;;;;;24.73;20.87;98284.56;5069034;28;20045;-87
2021/11/08 07:18:49;;;;;;;3.00;1.80;;;;;;;25.20;20.43;98285.97;5068879;28;20037;-88
2021/11/08 07:21:15;;;;;;;4.72;1.73;;;;;;;25.37;20.37;98290.34;5072930;28;20053;-88
2021/11/08 07:23:41;;;;;;;3.30;1.80;;;;;;;25.30;20.12;98298.16;5063218;28;20041;-88
2021/11/08 07:26:11;;;;;;;3.75;2.47;;;;;;;25.34;20.13;98296.06;5072057;28;20059;-88
2021/11/08 07:28:37;;;;;;;5.82;2.67;;;;;;;25.56;20.14;98299.97;5076976;28;20189;-88
2021/11/08 07:31:03;;;;;;;4.70;2.22;;;;;;;25.65;20.30;98302.97;5080990;28;20039;-88
2021/11/08 07:33:31;;;;;;;3.80;2.05;;;;;;;25.95;19.85;98310.25;5072749;28;20028;-89
2021/11/08 07:35:59;;;;;;;4.43;1.92;;;;;;;26.07;19.49;98312.34;5071967;28;20036;-89
2021/11/08 07:38:25;;;;;;;4.35;2.20;;;;;;;25.89;19.80;98304.38;5066586;28;20017;-89
2021/11/08 07:40:51;;;;;;;4.22;2.05;;;;;;;26.02;19.81;98310.06;5075422;28;20104;-89
2021/11/08 07:43:18;;;;;;;4.82;1.80;;;;;;;26.32;19.11;98318.13;5076254;28;20052;-90
2021/11/08 07:45:44;;;;;;;4.72;2.00;;;;;;;26.45;19.43;98318.19;5068094;28;20037;-89
2021/11/08 07:48:11;;;;;;;3.70;1.80;;;;;;;26.56;19.29;98318.66;5072665;28;20127;-89
2021/11/08 07:50:38;;;;;;;3.10;1.67;;;;;;;26.89;18.97;98319.34;5068806;28;20029;-88
2021/11/08 07:53:04;;;;;;;2.97;1.80;;;;;;;25.49;20.22;98321.84;5069872;28;20031;-89
2021/11/08 07:55:30;;;;;;;3.35;1.55;;;;;;;24.52;21.53;98327.94;5068623;28;20036;-89
2021/11/08 07:57:57;;;;;;;5.80;2.13;;;;;;;23.93;21.95;98332.59;5068411;28;20025;-89
2021/11/08 08:00:23;;;;;;;4.53;1.67;;;;;;;23.33;23.04;98334.34;5062387;28;20490;-90
2021/11/08 08:02:49;;;;;;;5.75;1.70;;;;;;;22.07;24.33;98330.28;5063683;28;20112;-89
2021/11/08 08:05:17;;;;;;;4.00;1.73;;;;;;;21.56;25.15;98336.69;5069661;28;20094;-89
2021/11/08 08:07:44;;;;;;;4.15;1.60;;;;;;;21.41;25.57;98340.78;5072374;28;20028;-90
2021/11/08 08:10:10;;;;;;;5.40;1.85;;;;;;;21.33;25.81;98340.84;5069562;28;20766;-87
2021/11/08 08:12:36;;;;;;;2.08;1.35;;;;;;;21.22;26.58;98348.50;5072101;28;20025;-86
2021/11/08 08:15:04;;;;;;;3.50;1.60;;;;;;;22.01;25.55;98352.28;5070325;28;20037;-86
2021/11/08 08:17:30;;;;;;;3.83;1.65;;;;;;;20.90;27.45;98355.41;5059350;28;20033;-88
2021/11/08 08:19:56;;;;;;;4.15;2.15;;;;;;;22.96;24.53;98365.28;5066556;28;20075;-86
2021/11/08 08:22:24;;;;;;;4.70;1.75;;;;;;;22.23;24.56;98359.28;5064491;28;20048;-86
2021/11/08 08:24:50;;;;;;;6.45;1.80;;;;;;;23.15;23.82;98380.63;5067473;28;20132;-87
2021/11/08 08:27:16;;;;;;;4.35;2.13;;;;;;;22.34;24.75;98382.34;5071215;28;20032;-87
2021/11/08 08:29:43;;;;;;;2.55;1.35;;;;;;;23.20;23.90;98380.16;5072875;28;20044;-87
2021/11/08 08:32:09;;;;;;;3.13;1.55;;;;;;;23.29;22.94;98378.41;5071040;28;20121;-87
2021/11/08 08:34:35;;;;;;;4.82;2.38;;;;;;;21.57;25.14;98375.41;5067822;28;20036;-86
2021/11/08 08:37:01;;;;;;;4.18;1.77;;;;;;;22.09;25.15;98389.38;5065282;28;20028;-88
2021/11/08 08:39:27;;;;;;;4.03;1.45;;;;;;;23.07;23.82;98384.72;5060617;28;20032;-86
2021/11/08 08:41:54;;;;;;;6.63;2.85;;;;;;;23.26;23.40;98386.88;5070074;28;20040;-87
2021/11/08 08:44:20;;;;;;;6.57;1.33;;;;;;;22.71;23.77;98392.75;5064650;28;20090;-86
2021/11/08 08:46:48;;;;;;;4.30;1.70;;;;;;;21.92;24.74;98394.72;5063319;28;20037;-87
2021/11/08 08:49:16;;;;;;;3.03;1.73;;;;;;;22.31;24.60;98405.53;5061129;28;20136;-87
2021/11/08 08:51:42;;;;;;;8.15;3.28;;;;;;;22.60;24.01;98390.09;5061822;28;20085;-86
2021/11/08 08:54:09;;;;;;;5.07;1.50;;;;;;;22.88;23.85;98414.16;5049647;28;20155;-86
2021/11/08 08:56:36;;;;;;;2.88;1.02;;;;;;;22.78;23.78;98414.31;5067045;28;20470;-87
2021/11/08 08:59:03;;;;;;;5.15;1.65;;;;;;;23.48;22.46;98401.44;5062874;28;20119;-87
2021/11/08 09:01:29;;;;;;;2.92;1.27;;;;;;;24.20;22.24;98408.31;5072901;28;20552;-87
2021/11/08 09:03:57;;;;;;;2.47;1.63;;;;;;;23.48;22.62;98410.59;5069876;28;20112;-86
2021/11/08 09:06:24;;;;;;;4.28;1.45;;;;;;;22.39;23.57;98420.25;5067405;28;20037;-87
2021/11/08 09:08:51;;;;;;;2.50;1.40;;;;;;;21.76;24.64;98402.81;5074185;28;20123;-87
2021/11/08 09:11:18;;;;;;;3.08;1.55;;;;;;;21.78;24.80;98413.56;5063918;28;20067;-87
2021/11/08 09:13:45;;;;;;;1.25;1.00;;;;;;;23.04;23.56;98425.56;5065592;28;20033;-87
2021/11/08 09:16:12;;;;;;;4.68;3.53;;;;;;;23.59;22.88;98419.66;5065835;28;20060;-88
2021/11/08 09:18:40;;;;;;;12.52;6.80;;;;;;;23.47;22.65;98420.25;5066329;28;20063;-87
2021/11/08 09:21:08;;;;;;;4.07;2.83;;;;;;;23.68;22.92;98413.53;5050861;28;20041;-87
2021/11/08 09:23:35;;;;;;;16.27;9.55;;;;;;;24.07;21.88;98427.75;5066177;28;20031;-87
2021/11/08 09:26:02;;;;;;;6.00;2.85;;;;;;;23.06;22.90;98441.94;5064969;28;20104;-87
2021/11/08 09:28:29;;;;;;;4.45;1.90;;;;;;;23.99;22.23;98424.25;5059323;28;20506;-87
2021/11/08 09:30:55;;;;;;;4.20;2.15;;;;;;;24.74;21.38;98420.94;5062229;28;20421;-86
2021/11/08 09:33:22;;;;;;;5.97;2.13;;;;;;;24.19;21.38;98423.56;5062845;28;20033;-84
2021/11/08 09:35:49;;;;;;;3.08;1.58;;;;;;;25.19;20.64;98426.88;5067378;28;20448;-85
2021/11/08 09:38:17;;;;;;;4.55;2.50;;;;;;;25.49;20.03;98435.09;5063877;28;20040;-85
2021/11/08 09:40:44;;;;;;;2.85;1.10;;;;;;;23.90;20.97;98438.00;5063929;28;20017;-85
2021/11/08 09:43:13;;;;;;;2.78;1.60;;;;;;;24.85;20.61;98435.63;5061205;28;20148;-85
2021/11/08 09:45:40;;;;;;;1.33;0.93;;;;;;;23.35;21.56;98443.22;5062724;28;20048;-87
2021/11/08 09:48:10;;;;;;;3.53;1.10;;;;;;;24.00;21.45;98436.25;5058617;28;20561;-86
2021/11/08 09:50:36;;;;;;;4.25;2.45;;;;;;;22.83;22.51;98439.81;5065970;28;20025;-85
2021/11/08 09:53:05;;;;;;;8.07;5.70;;;;;;;24.41;20.80;98430.41;5066235;28;20051;-86
2021/11/08 09:55:31;;;;;;;5.60;3.80;;;;;;;25.82;19.91;98427.53;5063120;28;20033;-86
2021/11/08 09:57:58;;;;;;;5.00;3.00;;;;;;;26.21;19.12;98424.56;5069068;28;20041;-85
2021/11/08 10:00:36;;;;;;;2.72;1.95;;;;;;;26.37;18.93;98427.38;5068903;28;20040;-87
2021/11/08 10:03:06;;;;;;;2.53;1.48;;;;;;;24.34;20.71;98434.09;5069169;28;20537;-86
2021/11/08 10:05:41;;;;;;;2.83;1.35;;;;;;;24.86;20.19;98433.56;5065527;28;20047;-85
2021/11/08 10:08:07;;;;;;;4.95;3.03;;;;;;;24.80;19.90;98432.50;5063224;28;20036;-87
2021/11/08 10:10:33;;;;;;;6.97;3.75;;;;;;;25.03;19.44;98419.19;5066235;28;20113;-87
2021/11/08 10:13:12;;;;;;;2.33;1.30;;;;;;;23.43;20.86;98429.91;5063308;28;20039;-87
2021/11/08 10:15:42;;;;;;;4.43;1.70;;;;;;;24.51;20.77;98416.16;5064861;28;20505;-88
2021/11/08 10:18:09;;;;;;;2.00;1.02;;;;;;;24.63;20.61;98414.75;5063775;28;20028;-87
2021/11/08 10:20:39;;;;;;;2.60;1.20;;;;;;;23.73;21.04;98410.25;5066126;28;20052;-89
2021/11/08 10:23:06;;;;;;;3.83;1.40;;;;;;;23.36;21.42;98409.16;5067687;28;20054;-89
2021/11/08 10:25:33;;;;;;;6.90;1.83;;;;;;;23.09;21.90;98405.50;5062211;28;20024;-88
2021/11/08 10:28:06;;;;;;;2.38;1.35;;;;;;;23.07;21.78;98409.94;5061266;28;20075;-87
2021/11/08 10:30:34;;;;;;;3.85;1.30;;;;;;;22.54;22.20;98416.13;5068553;28;20740;-88
2021/11/08 10:33:16;;;;;;;2.00;0.70;;;;;;;21.56;22.95;98415.72;5049726;28;20775;-88
2021/11/08 10:35:53;;;;;;;2.97;1.40;;;;;;;23.89;21.21;98405.59;5065384;28;20063;-88
2021/11/08 10:38:26;;;;;;;2.35;1.02;;;;;;;24.91;19.57;98402.19;5069981;28;20036;-85
2021/11/08 10:41:00;;;;;;;5.57;0.98;;;;;;;25.73;18.90;98400.00;5069206;28;20071;-86
2021/11/08 10:43:42;;;;;;;6.88;1.38;;;;;;;25.73;18.59;98397.19;5065100;28;20020;-87
2021/11/08 10:46:14;;;;;;;4.80;1.17;;;;;;;25.97;18.53;98401.44;5061883;28;20029;-89
2021/11/08 10:48:44;;;;;;;3.50;0.70;;;;;;;24.99;19.20;98406.44;5068088;28;20044;-88
2021/11/08 10:51:13;;;;;;;1.60;0.90;;;;;;;24.97;19.28;98406.09;5069810;28;20115;-90
2021/11/08 10:53:45;;;;;;;4.13;0.95;;;;;;;24.81;19.56;98403.97;5071532;28;20028;-88
2021/11/08 10:56:14;;;;;;;0.95;0.60;;;;;;;23.37;20.61;98409.97;5068540;28;21905;-90
2021/11/08 10:58:46;;;;;;;1.33;0.70;;;;;;;22.14;21.68;98417.72;5069336;28;20028;-88
2021/11/08 11:01:22;;;;;;;6.97;2.33;;;;;;;22.13;22.36;98404.91;5068353;28;20094;-88
2021/11/08 11:03:50;;;;;;;1.00;0.70;;;;;;;21.86;22.58;98406.75;5066458;28;20498;-87
2021/11/08 11:06:17;;;;;;;2.78;0.80;;;;;;;21.76;22.92;98413.19;5049530;28;20029;-85
2021/11/08 11:08:51;;;;;;;2.60;0.70;;;;;;;22.07;22.30;98403.78;5070711;28;20031;-85
2021/11/08 11:11:23;;;;;;;1.90;0.80;;;;;;;22.65;21.90;98408.44;5067609;28;20036;-88
2021/11/08 11:13:52;;;;;;;1.98;0.60;;;;;;;23.72;21.05;98405.84;5068788;28;20028;-90
2021/11/08 11:16:49;;;;;;;3.03;0.57;;;;;;;24.70;19.69;98406.97;5072942;28;20032;-86
2021/11/08 11:19:18;;;;;;;0.82;0.60;;;;;;;24.16;20.14;98413.97;5067165;28;20052;-88
2021/11/08 11:21:57;;;;;;;0.85;0.32;;;;;;;23.74;20.94;98417.44;5062932;28;20045;-89
2021/11/08 11:24:46;;;;;;;1.48;0.60;;;;;;;24.58;20.10;98412.41;5070894;28;20044;-88
2021/11/08 11:27:28;;;;;;;0.47;0.47;;;;;;;25.37;19.45;98404.81;5065345;28;20062;-88
2021/11/08 11:30:16;;;;;;;2.20;0.30;;;;;;;25.67;18.51;98409.41;5071457;28;20111;-88
2021/11/08 11:32:43;;;;;;;1.80;0.30;;;;;;;24.95;19.71;98414.16;5072146;28;20032;-88
2021/11/08 11:35:16;;;;;;;4.00;0.40;;;;;;;25.54;18.88;98414.09;5069801;28;20032;-93
2021/11/08 11:37:56;;;;;;;1.35;0.32;;;;;;;25.52;19.30;98410.94;5073396;28;20028;-91
2021/11/08 11:40:22;;;;;;;0.47;0.30;;;;;;;24.94;19.70;98418.97;5069050;28;20025;-86
2021/11/08 11:42:55;;;;;;;0.57;0.30;;;;;;;25.64;19.02;98408.25;5072034;28;20110;-88
2021/11/08 11:45:21;;;;;;;3.85;1.15;;;;;;;24.12;20.08;98406.84;5075046;28;20025;-88
2021/11/08 11:48:05;;;;;;;3.30;0.50;;;;;;;24.40;20.13;98403.53;5075525;28;20029;-91
2021/11/08 11:50:34;;;;;;;1.63;0.65;;;;;;;23.65;20.74;98406.75;5069005;28;20037;-90
2021/11/08 11:53:02;;;;;;;2.42;0.88;;;;;;;22.92;21.67;98406.50;5068342;28;20028;-90
2021/11/08 11:55:29;;;;;;;2.00;0.73;;;;;;;23.13;20.93;98408.25;5064553;28;20040;-90
2021/11/08 11:57:57;;;;;;;1.27;0.60;;;;;;;23.85;21.28;98412.47;5058300;28;20126;-90
2021/11/08 12:00:32;;;;;;;1.00;0.50;;;;;;;24.48;19.92;98405.00;5067421;28;20032;-90
2021/11/08 12:02:59;;;;;;;1.67;0.60;;;;;;;24.85;19.37;98410.34;5068337;28;20025;-91
2021/11/08 12:05:26;;;;;;;1.38;0.50;;;;;;;24.80;19.56;98399.59;5072346;28;20040;-91
2021/11/08 12:08:00;;;;;;;1.60;0.60;;;;;;;25.42;19.11;98407.91;5064451;28;20083;-87
2021/11/08 12:10:26;;;;;;;0.95;0.32;;;;;;;24.56;20.00;98393.22;5067788;28;20063;-87
2021/11/08 12:12:54;;;;;;;1.38;0.50;;;;;;;25.19;19.12;98404.41;5062234;28;20509;-86
2021/11/08 12:15:31;;;;;;;2.03;0.60;;;;;;;24.78;19.47;98407.66;5071700;28;20058;-86
2021/11/08 12:18:11;;;;;;;1.70;0.70;;;;;;;25.61;18.81;98403.50;5068974;28;20364;-86
2021/11/08 12:20:49;;;;;;;2.80;0.73;;;;;;;25.08;19.61;98398.22;5067333;28;20040;-86
2021/11/08 12:23:23;;;;;;;2.25;0.50;;;;;;;25.51;19.01;98398.91;5068613;28;20042;-86
2021/11/08 12:25:52;;;;;;;0.30;0.30;;;;;;;25.68;18.93;98394.09;5069341;28;20039;-87
2021/11/08 12:28:27;;;;;;;1.00;0.63;;;;;;;26.03;18.56;98398.88;5070772;28;20051;-86
2021/11/08 12:31:04;;;;;;;0.50;0.30;;;;;;;25.62;18.80;98393.06;5064001;28;20063;-85
2021/11/08 12:33:34;;;;;;;0.57;0.50;;;;;;;26.13;18.31;98397.06;5067807;28;20037;-83
2021/11/08 12:36:22;;;;;;;1.85;1.20;;;;;;;26.38;17.70;98394.38;5068005;28;20029;-87
2021/11/08 12:38:59;;;;;;;1.10;0.50;;;;;;;26.37;18.01;98392.81;5068351;28;20031;-86
2021/11/08 12:41:47;;;;;;;1.95;0.98;;;;;;;26.23;18.19;98390.38;5070327;28;20554;-86
2021/11/08 12:44:17;;;;;;;0.63;0.40;;;;;;;25.24;19.16;98395.47;5052509;28;20036;-87
2021/11/08 12:47:01;;;;;;;0.68;0.40;;;;;;;24.60;19.99;98393.13;5070300;28;20052;-86
2021/11/08 12:49:36;;;;;;;2.55;0.40;;;;;;;24.42;19.82;98392.66;5063304;28;20038;-86
2021/11/08 12:52:09;;;;;;;0.82;0.50;;;;;;;24.35;20.34;98396.41;5063613;28;20082;-86
2021/11/08 12:55:03;;;;;;;0.65;0.40;;;;;;;25.32;19.06;98397.69;5070722;28;20082;-86
2021/11/08 12:57:30;;;;;;;1.23;0.65;;;;;;;25.11;19.08;98400.19;5066123;28;20086;-86
2021/11/08 12:59:59;;;;;;;3.58;0.98;;;;;;;24.59;19.73;98397.97;5059743;28;20032;-86
2021/11/08 13:02:37;;;;;;;5.47;2.95;;;;;;;24.32;19.81;98390.88;5055088;28;20398;-87
2021/11/08 13:05:06;;;;;;;11.95;5.07;;;;;;;24.95;19.48;98400.13;5066744;28;20042;-86
2021/11/08 13:07:37;;;;;;;4.13;1.70;;;;;;;24.96;19.42;98398.88;5068352;28;20511;-86
2021/11/08 13:10:18;;;;;;;1.70;0.95;;;;;;;24.04;20.27;98397.72;5049692;28;20437;-86
2021/11/08 13:12:44;;;;;;;3.03;0.95;;;;;;;24.72;19.99;98398.91;5063281;28;20478;-86
2021/11/08 13:15:19;;;;;;;5.97;1.35;;;;;;;25.15;19.06;98407.31;5060721;28;20063;-86
2021/11/08 13:17:50;;;;;;;3.50;1.23;;;;;;;24.73;19.53;98408.94;5061878;28;20040;-85